sensor_id;sensor_type;location;lat;lon;timestamp;pressure;altitude;pressure_sealevel;temperature;humidity
34674;BME280;20879;55.668;37.858;2023-02-01T00:00:57;98492.59;;;0.33;92.73
34674;BME280;20879;55.668;37.858;2023-02-01T00:03:29;98490.00;;;0.24;92.55
34674;BME280;20879;55.668;37.858;2023-02-01T00:06:03;98465.28;;;0.10;92.67
34674;BME280;20879;55.668;37.858;2023-02-01T00:08:38;98488.34;;;0.35;92.51
34674;BME280;20879;55.668;37.858;2023-02-01T00:11:08;98496.84;;;0.34;92.50
34674;BME280;20879;55.668;37.858;2023-02-01T00:13:48;98490.03;;;0.33;92.16
34674;BME280;20879;55.668;37.858;2023-02-01T00:16:19;98491.75;;;0.34;91.86
34674;BME280;20879;55.668;37.858;2023-02-01T00:19:00;98497.69;;;0.38;91.98
34674;BME280;20879;55.668;37.858;2023-02-01T00:21:31;98499.41;;;0.40;91.84
34674;BME280;20879;55.668;37.858;2023-02-01T00:24:06;98496.88;;;0.39;91.60
34674;BME280;20879;55.668;37.858;2023-02-01T00:26:37;98498.59;;;0.41;91.90
34674;BME280;20879;55.668;37.858;2023-02-01T00:29:20;98504.50;;;0.40;91.51
34674;BME280;20879;55.668;37.858;2023-02-01T00:31:50;98503.66;;;0.40;91.69
34674;BME280;20879;55.668;37.858;2023-02-01T00:34:22;98498.56;;;0.40;91.48
34674;BME280;20879;55.668;37.858;2023-02-01T00:36:51;98507.06;;;0.43;91.40
34674;BME280;20879;55.668;37.858;2023-02-01T00:39:26;98486.63;;;0.31;91.08
34674;BME280;20879;55.668;37.858;2023-02-01T00:41:55;98501.94;;;0.36;91.24
34674;BME280;20879;55.668;37.858;2023-02-01T00:44:29;98501.13;;;0.40;91.36
34674;BME280;20879;55.668;37.858;2023-02-01T00:47:06;98500.28;;;0.44;91.23
34674;BME280;20879;55.668;37.858;2023-02-01T00:49:37;98502.00;;;0.49;91.34
34674;BME280;20879;55.668;37.858;2023-02-01T00:52:06;98501.19;;;0.52;90.97
34674;BME280;20879;55.668;37.858;2023-02-01T00:54:35;98502.91;;;0.53;91.24
34674;BME280;20879;55.668;37.858;2023-02-01T00:57:10;98508.84;;;0.54;90.79
34674;BME280;20879;55.668;37.858;2023-02-01T00:59:40;98482.44;;;0.39;90.51
34674;BME280;20879;55.668;37.858;2023-02-01T01:02:14;98448.34;;;0.14;90.45
34674;BME280;20879;55.668;37.858;2023-02-01T01:04:45;98500.34;;;0.51;90.78
34674;BME280;20879;55.668;37.858;2023-02-01T01:07:19;98499.47;;;0.51;90.48
34674;BME280;20879;55.668;37.858;2023-02-01T01:09:49;98496.88;;;0.40;90.77
34674;BME280;20879;55.668;37.858;2023-02-01T01:12:18;98485.00;;;0.47;90.26
34674;BME280;20879;55.668;37.858;2023-02-01T01:14:47;98507.13;;;0.52;90.25
34674;BME280;20879;55.668;37.858;2023-02-01T01:17:18;98507.97;;;0.50;90.26
34674;BME280;20879;55.668;37.858;2023-02-01T01:19:54;98502.00;;;0.46;89.98
34674;BME280;20879;55.668;37.858;2023-02-01T01:22:26;98496.06;;;0.49;90.04
34674;BME280;20879;55.668;37.858;2023-02-01T01:24:55;98519.91;;;0.57;90.16
34674;BME280;20879;55.668;37.858;2023-02-01T01:27:25;98514.75;;;0.54;90.09
34674;BME280;20879;55.668;37.858;2023-02-01T01:29:54;98519.91;;;0.57;89.85
34674;BME280;20879;55.668;37.858;2023-02-01T01:32:23;98506.31;;;0.58;90.01
34674;BME280;20879;55.668;37.858;2023-02-01T01:34:55;98510.56;;;0.59;89.72
34674;BME280;20879;55.668;37.858;2023-02-01T01:37:24;98508.00;;;0.56;89.56
34674;BME280;20879;55.668;37.858;2023-02-01T01:39:53;98498.63;;;0.50;89.87
34674;BME280;20879;55.668;37.858;2023-02-01T01:42:23;98513.09;;;0.53;89.78
34674;BME280;20879;55.668;37.858;2023-02-01T01:45:01;98518.16;;;0.50;89.66
34674;BME280;20879;55.668;37.858;2023-02-01T01:47:44;98518.16;;;0.50;89.45
34674;BME280;20879;55.668;37.858;2023-02-01T01:50:21;98515.63;;;0.51;89.52
34674;BME280;20879;55.668;37.858;2023-02-01T01:53:00;98460.25;;;0.18;89.23
34674;BME280;20879;55.668;37.858;2023-02-01T01:55:34;98513.00;;;0.44;89.25
34674;BME280;20879;55.668;37.858;2023-02-01T01:58:18;98514.72;;;0.45;89.46
34674;BME280;20879;55.668;37.858;2023-02-01T02:00:48;98524.06;;;0.41;89.30
34674;BME280;20879;55.668;37.858;2023-02-01T02:03:19;98522.34;;;0.40;89.65
34674;BME280;20879;55.668;37.858;2023-02-01T02:05:59;98516.41;;;0.43;89.80
34674;BME280;20879;55.668;37.858;2023-02-01T02:08:34;98514.72;;;0.42;89.66
34674;BME280;20879;55.668;37.858;2023-02-01T02:11:07;98514.72;;;0.42;89.61
34674;BME280;20879;55.668;37.858;2023-02-01T02:13:40;98520.66;;;0.45;89.75
34674;BME280;20879;55.668;37.858;2023-02-01T02:16:50;98519.84;;;0.52;89.79
34674;BME280;20879;55.668;37.858;2023-02-01T02:22:48;98527.50;;;0.56;89.51
34674;BME280;20879;55.668;37.858;2023-02-01T02:28:34;98533.50;;;0.59;89.23
34674;BME280;20879;55.668;37.858;2023-02-01T02:31:26;98535.16;;;0.54;89.14
34674;BME280;20879;55.668;37.858;2023-02-01T02:34:06;98540.28;;;0.57;88.92
34674;BME280;20879;55.668;37.858;2023-02-01T02:36:47;98537.75;;;0.57;89.00
34674;BME280;20879;55.668;37.858;2023-02-01T02:39:26;98538.59;;;0.59;88.68
34674;BME280;20879;55.668;37.858;2023-02-01T02:42:02;98538.59;;;0.59;89.08
34674;BME280;20879;55.668;37.858;2023-02-01T02:44:55;98536.88;;;0.57;88.90
34674;BME280;20879;55.668;37.858;2023-02-01T02:47:51;98541.13;;;0.56;89.25
34674;BME280;20879;55.668;37.858;2023-02-01T02:50:35;98544.50;;;0.55;88.85
34674;BME280;20879;55.668;37.858;2023-02-01T02:53:38;98534.25;;;0.41;89.21
34674;BME280;20879;55.668;37.858;2023-02-01T02:56:24;98537.66;;;0.45;89.23
34674;BME280;20879;55.668;37.858;2023-02-01T02:59:09;98542.69;;;0.39;88.98
34674;BME280;20879;55.668;37.858;2023-02-01T03:01:53;98543.50;;;0.31;89.32
34674;BME280;20879;55.668;37.858;2023-02-01T03:04:42;98539.19;;;0.24;89.46
34674;BME280;20879;55.668;37.858;2023-02-01T03:07:45;98549.34;;;0.18;90.22
34674;BME280;20879;55.668;37.858;2023-02-01T03:10:08;98541.72;;;0.20;90.09
34674;BME280;20879;55.668;37.858;2023-02-01T03:12:40;98550.19;;;0.20;89.92
34674;BME280;20879;55.668;37.858;2023-02-01T03:15:33;98539.19;;;0.23;90.50
34674;BME280;20879;55.668;37.858;2023-02-01T03:18:09;98539.19;;;0.21;90.17
34674;BME280;20879;55.668;37.858;2023-02-01T03:20:43;98514.50;;;0.12;90.06
34674;BME280;20879;55.668;37.858;2023-02-01T03:23:17;98544.41;;;0.40;89.57
34674;BME280;20879;55.668;37.858;2023-02-01T03:25:48;98521.34;;;0.18;89.58
34674;BME280;20879;55.668;37.858;2023-02-01T03:28:22;98546.03;;;0.28;89.77
34674;BME280;20879;55.668;37.858;2023-02-01T03:30:54;98551.91;;;0.21;90.19
34674;BME280;20879;55.668;37.858;2023-02-01T03:33:25;98555.28;;;0.20;90.18
34674;BME280;20879;55.668;37.858;2023-02-01T03:36:03;98551.06;;;0.22;90.31
34674;BME280;20879;55.668;37.858;2023-02-01T03:38:41;98543.47;;;0.27;90.82
34674;BME280;20879;55.668;37.858;2023-02-01T03:41:20;98549.44;;;0.32;90.32
34674;BME280;20879;55.668;37.858;2023-02-01T03:44:03;98541.78;;;0.30;90.20
34674;BME280;20879;55.668;37.858;2023-02-01T03:46:40;98545.09;;;0.17;90.19
34674;BME280;20879;55.668;37.858;2023-02-01T03:49:18;98541.69;;;0.16;90.11
34674;BME280;20879;55.668;37.858;2023-02-01T03:51:55;98553.63;;;0.22;90.40
34674;BME280;20879;55.668;37.858;2023-02-01T03:54:28;98554.50;;;0.29;90.62
34674;BME280;20879;55.668;37.858;2023-02-01T03:57:05;98554.53;;;0.35;90.28
34674;BME280;20879;55.668;37.858;2023-02-01T03:59:38;98547.78;;;0.34;90.26
34674;BME280;20879;55.668;37.858;2023-02-01T04:02:08;98540.13;;;0.36;89.83
34674;BME280;20879;55.668;37.858;2023-02-01T04:04:37;98552.06;;;0.43;89.81
34674;BME280;20879;55.668;37.858;2023-02-01T04:07:12;98565.69;;;0.51;89.63
34674;BME280;20879;55.668;37.858;2023-02-01T04:09:45;98560.56;;;0.46;89.33
34674;BME280;20879;55.668;37.858;2023-02-01T04:12:14;98566.47;;;0.42;89.07
34674;BME280;20879;55.668;37.858;2023-02-01T04:14:43;98582.59;;;0.38;89.29
34674;BME280;20879;55.668;37.858;2023-02-01T04:17:13;98565.47;;;0.20;89.28
34674;BME280;20879;55.668;37.858;2023-02-01T04:19:47;98587.63;;;0.33;89.56
34674;BME280;20879;55.668;37.858;2023-02-01T04:22:16;98591.91;;;0.34;89.64
34674;BME280;20879;55.668;37.858;2023-02-01T04:24:47;98591.94;;;0.39;89.84
34674;BME280;20879;55.668;37.858;2023-02-01T04:27:23;98591.13;;;0.45;89.47
34674;BME280;20879;55.668;37.858;2023-02-01T04:29:52;98586.94;;;0.48;89.62
34674;BME280;20879;55.668;37.858;2023-02-01T04:32:27;98590.34;;;0.52;89.72
34674;BME280;20879;55.668;37.858;2023-02-01T04:34:56;98597.97;;;0.50;89.57
34674;BME280;20879;55.668;37.858;2023-02-01T04:37:25;98607.31;;;0.51;89.42
34674;BME280;20879;55.668;37.858;2023-02-01T04:39:57;98609.88;;;0.51;89.44
34674;BME280;20879;55.668;37.858;2023-02-01T04:42:27;98607.25;;;0.47;89.69
34674;BME280;20879;55.668;37.858;2023-02-01T04:44:56;98608.97;;;0.46;89.39
34674;BME280;20879;55.668;37.858;2023-02-01T04:47:31;98611.53;;;0.51;89.69
34674;BME280;20879;55.668;37.858;2023-02-01T04:50:00;98615.00;;;0.56;89.28
34674;BME280;20879;55.668;37.858;2023-02-01T04:52:29;98620.94;;;0.57;89.13
34674;BME280;20879;55.668;37.858;2023-02-01T04:55:00;98619.28;;;0.60;89.12
34674;BME280;20879;55.668;37.858;2023-02-01T04:57:38;98615.84;;;0.60;89.56
34674;BME280;20879;55.668;37.858;2023-02-01T05:00:09;98626.06;;;0.63;89.16
34674;BME280;20879;55.668;37.858;2023-02-01T05:02:39;98628.63;;;0.64;89.27
34674;BME280;20879;55.668;37.858;2023-02-01T05:05:09;98628.59;;;0.63;88.96
34674;BME280;20879;55.668;37.858;2023-02-01T05:07:38;98633.72;;;0.64;89.25
34674;BME280;20879;55.668;37.858;2023-02-01T05:10:10;98632.06;;;0.68;89.19
34674;BME280;20879;55.668;37.858;2023-02-01T05:12:39;98641.44;;;0.72;89.23
34674;BME280;20879;55.668;37.858;2023-02-01T05:15:21;98640.59;;;0.75;89.16
34674;BME280;20879;55.668;37.858;2023-02-01T05:17:50;98644.81;;;0.69;89.01
34674;BME280;20879;55.668;37.858;2023-02-01T05:20:19;98641.41;;;0.67;89.02
34674;BME280;20879;55.668;37.858;2023-02-01T05:22:49;98648.19;;;0.72;89.48
34674;BME280;20879;55.668;37.858;2023-02-01T05:25:21;98647.34;;;0.68;89.21
34674;BME280;20879;55.668;37.858;2023-02-01T05:27:50;98651.59;;;0.66;89.27
34674;BME280;20879;55.668;37.858;2023-02-01T05:30:19;98648.16;;;0.62;89.55
34674;BME280;20879;55.668;37.858;2023-02-01T05:32:50;98643.97;;;0.67;89.56
34674;BME280;20879;55.668;37.858;2023-02-01T05:35:19;98643.06;;;0.64;89.63
34674;BME280;20879;55.668;37.858;2023-02-01T05:37:49;98620.03;;;0.50;89.19
34674;BME280;20879;55.668;37.858;2023-02-01T05:40:25;98632.81;;;0.55;89.30
34674;BME280;20879;55.668;37.858;2023-02-01T05:42:54;98641.25;;;0.49;89.02
34674;BME280;20879;55.668;37.858;2023-02-01T05:45:23;98642.06;;;0.45;89.23
34674;BME280;20879;55.668;37.858;2023-02-01T05:47:58;98637.00;;;0.48;89.61
34674;BME280;20879;55.668;37.858;2023-02-01T05:50:27;98649.84;;;0.59;89.38
34674;BME280;20879;55.668;37.858;2023-02-01T05:52:57;98650.72;;;0.65;89.66
34674;BME280;20879;55.668;37.858;2023-02-01T05:55:28;98652.44;;;0.68;89.58
34674;BME280;20879;55.668;37.858;2023-02-01T05:58:05;98643.91;;;0.64;89.13
34674;BME280;20879;55.668;37.858;2023-02-01T06:00:35;98648.16;;;0.64;89.26
34674;BME280;20879;55.668;37.858;2023-02-01T06:03:04;98651.53;;;0.64;89.26
34674;BME280;20879;55.668;37.858;2023-02-01T06:05:34;98656.66;;;0.64;89.43
34674;BME280;20879;55.668;37.858;2023-02-01T06:08:03;98650.69;;;0.61;89.10
34674;BME280;20879;55.668;37.858;2023-02-01T06:10:41;98656.72;;;0.71;88.98
34674;BME280;20879;55.668;37.858;2023-02-01T06:13:12;98641.34;;;0.61;89.11
34674;BME280;20879;55.668;37.858;2023-02-01T06:15:42;98664.44;;;0.86;88.98
34674;BME280;20879;55.668;37.858;2023-02-01T06:18:11;98666.03;;;0.68;88.65
34674;BME280;20879;55.668;37.858;2023-02-01T06:20:42;98664.25;;;0.61;88.61
34674;BME280;20879;55.668;37.858;2023-02-01T06:23:16;98665.13;;;0.60;88.46
34674;BME280;20879;55.668;37.858;2023-02-01T06:25:47;98671.94;;;0.64;88.65
34674;BME280;20879;55.668;37.858;2023-02-01T06:28:16;98657.41;;;0.52;88.65
34674;BME280;20879;55.668;37.858;2023-02-01T06:30:51;98679.66;;;0.71;88.56
34674;BME280;20879;55.668;37.858;2023-02-01T06:33:20;98680.53;;;0.76;88.76
34674;BME280;20879;55.668;37.858;2023-02-01T06:35:58;98677.13;;;0.77;88.22
34674;BME280;20879;55.668;37.858;2023-02-01T06:38:27;98681.34;;;0.73;88.41
34674;BME280;20879;55.668;37.858;2023-02-01T06:40:58;98691.50;;;0.68;88.45
34674;BME280;20879;55.668;37.858;2023-02-01T06:43:29;98694.09;;;0.75;88.84
34674;BME280;20879;55.668;37.858;2023-02-01T06:46:00;98693.25;;;0.76;88.72
34674;BME280;20879;55.668;37.858;2023-02-01T06:48:29;98689.06;;;0.79;88.21
34674;BME280;20879;55.668;37.858;2023-02-01T06:50:59;98684.81;;;0.81;88.35
34674;BME280;20879;55.668;37.858;2023-02-01T06:53:28;98685.63;;;0.79;88.24
34674;BME280;20879;55.668;37.858;2023-02-01T06:56:05;98688.22;;;0.83;88.63
34674;BME280;20879;55.668;37.858;2023-02-01T06:58:39;98674.63;;;0.83;88.27
34674;BME280;20879;55.668;37.858;2023-02-01T07:01:13;98686.63;;;0.96;88.20
34674;BME280;20879;55.668;37.858;2023-02-01T07:03:49;98685.78;;;1.00;87.70
34674;BME280;20879;55.668;37.858;2023-02-01T07:06:19;98686.63;;;0.96;87.92
34674;BME280;20879;55.668;37.858;2023-02-01T07:08:48;98687.50;;;0.98;87.84
34674;BME280;20879;55.668;37.858;2023-02-01T07:11:20;98691.75;;;1.02;87.31
34674;BME280;20879;55.668;37.858;2023-02-01T07:13:54;98688.41;;;1.10;87.36
34674;BME280;20879;55.668;37.858;2023-02-01T07:16:23;98654.34;;;0.97;87.23
34674;BME280;20879;55.668;37.858;2023-02-01T07:18:57;98676.50;;;1.06;87.14
34674;BME280;20879;55.668;37.858;2023-02-01T07:21:27;98691.00;;;1.17;87.12
34674;BME280;20879;55.668;37.858;2023-02-01T07:24:02;98672.25;;;1.06;86.65
34674;BME280;20879;55.668;37.858;2023-02-01T07:26:33;98700.34;;;1.20;86.30
34674;BME280;20879;55.668;37.858;2023-02-01T07:29:02;98705.44;;;1.17;86.12
34674;BME280;20879;55.668;37.858;2023-02-01T07:31:31;98701.16;;;1.10;86.04
34674;BME280;20879;55.668;37.858;2023-02-01T07:34:01;98703.69;;;1.08;85.91
34674;BME280;20879;55.668;37.858;2023-02-01T07:36:30;98710.50;;;1.11;85.99
34674;BME280;20879;55.668;37.858;2023-02-01T07:39:06;98713.06;;;1.14;86.00
34674;BME280;20879;55.668;37.858;2023-02-01T07:41:37;98709.69;;;1.13;85.89
34674;BME280;20879;55.668;37.858;2023-02-01T07:44:16;98709.69;;;1.15;86.01
34674;BME280;20879;55.668;37.858;2023-02-01T07:46:50;98689.25;;;1.06;85.84
34674;BME280;20879;55.668;37.858;2023-02-01T07:49:20;98704.63;;;1.19;85.65
34674;BME280;20879;55.668;37.858;2023-02-01T07:51:49;98685.84;;;1.11;85.64
34674;BME280;20879;55.668;37.858;2023-02-01T07:54:18;98702.16;;;1.32;85.61
34674;BME280;20879;55.668;37.858;2023-02-01T07:56:55;98681.75;;;1.32;84.62
34674;BME280;20879;55.668;37.858;2023-02-01T07:59:24;98707.34;;;1.50;84.54
34674;BME280;20879;55.668;37.858;2023-02-01T08:01:54;98699.66;;;1.46;84.64
34674;BME280;20879;55.668;37.858;2023-02-01T08:04:21;98705.66;;;1.54;83.93
34674;BME280;20879;55.668;37.858;2023-02-01T08:06:50;98703.13;;;1.55;83.95
34674;BME280;20879;55.668;37.858;2023-02-01T08:09:19;98702.25;;;1.55;83.62
34674;BME280;20879;55.668;37.858;2023-02-01T08:11:49;98705.59;;;1.42;83.57
34674;BME280;20879;55.668;37.858;2023-02-01T08:14:20;98690.28;;;1.38;83.41
34674;BME280;20879;55.668;37.858;2023-02-01T08:16:49;98688.63;;;1.44;83.79
34674;BME280;20879;55.668;37.858;2023-02-01T08:19:18;98683.53;;;1.47;83.42
34674;BME280;20879;55.668;37.858;2023-02-01T08:21:47;98694.69;;;1.70;82.96
34674;BME280;20879;55.668;37.858;2023-02-01T08:24:16;98697.25;;;1.73;82.29
34674;BME280;20879;55.668;37.858;2023-02-01T08:26:46;98684.47;;;1.72;82.47
34674;BME280;20879;55.668;37.858;2023-02-01T08:29:15;98684.50;;;1.81;82.27
34674;BME280;20879;55.668;37.858;2023-02-01T08:31:47;98695.59;;;1.85;81.48
34674;BME280;20879;55.668;37.858;2023-02-01T08:34:17;98675.16;;;1.85;81.40
34674;BME280;20879;55.668;37.858;2023-02-01T08:36:46;98698.19;;;2.03;81.53
34674;BME280;20879;55.668;37.858;2023-02-01T08:39:15;98693.13;;;2.13;80.50
34674;BME280;20879;55.668;37.858;2023-02-01T08:41:44;98649.66;;;1.85;80.16
34674;BME280;20879;55.668;37.858;2023-02-01T08:44:35;98681.19;;;2.04;80.12
34674;BME280;20879;55.668;37.858;2023-02-01T08:47:07;98685.47;;;2.25;79.50
34674;BME280;20879;55.668;37.858;2023-02-01T08:49:36;98690.59;;;2.28;79.45
34674;BME280;20879;55.668;37.858;2023-02-01T08:52:05;98692.28;;;2.29;79.42
34674;BME280;20879;55.668;37.858;2023-02-01T08:54:42;98688.88;;;2.21;79.24
34674;BME280;20879;55.668;37.858;2023-02-01T08:57:12;98692.28;;;2.17;78.94
34674;BME280;20879;55.668;37.858;2023-02-01T08:59:41;98696.53;;;2.19;79.03
34674;BME280;20879;55.668;37.858;2023-02-01T09:02:16;98689.75;;;2.24;78.94
34674;BME280;20879;55.668;37.858;2023-02-01T09:04:45;98673.53;;;2.16;78.53
34674;BME280;20879;55.668;37.858;2023-02-01T09:07:14;98688.00;;;2.16;78.50
34674;BME280;20879;55.668;37.858;2023-02-01T09:09:44;98673.50;;;1.99;78.82
34674;BME280;20879;55.668;37.858;2023-02-01T09:12:14;98668.38;;;1.96;78.40
34674;BME280;20879;55.668;37.858;2023-02-01T09:14:44;98660.72;;;1.91;78.66
34674;BME280;20879;55.668;37.858;2023-02-01T09:17:13;98692.22;;;2.01;78.56
34674;BME280;20879;55.668;37.858;2023-02-01T09:19:44;98682.84;;;2.03;78.36
34674;BME280;20879;55.668;37.858;2023-02-01T09:22:14;98687.13;;;1.95;77.90
34674;BME280;20879;55.668;37.858;2023-02-01T09:24:54;98691.34;;;1.90;78.31
34674;BME280;20879;55.668;37.858;2023-02-01T09:27:23;98685.41;;;1.92;78.58
34674;BME280;20879;55.668;37.858;2023-02-01T09:29:53;98676.88;;;1.89;78.23
34674;BME280;20879;55.668;37.858;2023-02-01T09:32:23;98685.38;;;1.83;78.10
34674;BME280;20879;55.668;37.858;2023-02-01T09:34:54;98690.50;;;1.88;78.48
34674;BME280;20879;55.668;37.858;2023-02-01T09:37:24;98687.94;;;1.88;78.54
34674;BME280;20879;55.668;37.858;2023-02-01T09:39:53;98689.63;;;1.86;78.46
34674;BME280;20879;55.668;37.858;2023-02-01T09:42:47;98685.38;;;1.89;78.42
34674;BME280;20879;55.668;37.858;2023-02-01T09:45:25;98686.22;;;1.90;78.64
34674;BME280;20879;55.668;37.858;2023-02-01T09:48:04;98678.53;;;1.78;78.17
34674;BME280;20879;55.668;37.858;2023-02-01T09:50:44;98687.03;;;1.77;78.29
34674;BME280;20879;55.668;37.858;2023-02-01T09:53:20;98680.28;;;1.96;78.01
34674;BME280;20879;55.668;37.858;2023-02-01T09:55:52;98674.41;;;2.21;77.93
34674;BME280;20879;55.668;37.858;2023-02-01T09:58:29;98678.69;;;2.33;76.68
34674;BME280;20879;55.668;37.858;2023-02-01T10:01:02;98675.25;;;2.26;76.65
34674;BME280;20879;55.668;37.858;2023-02-01T10:03:37;98682.03;;;2.04;76.93
34674;BME280;20879;55.668;37.858;2023-02-01T10:06:20;98645.31;;;1.62;77.27
34674;BME280;20879;55.668;37.858;2023-02-01T10:12:16;98658.13;;;1.74;78.17
34674;BME280;20879;55.668;37.858;2023-02-01T10:15:04;98662.44;;;1.97;77.90
34674;BME280;20879;55.668;37.858;2023-02-01T10:17:48;98652.22;;;2.02;77.65
34674;BME280;20879;55.668;37.858;2023-02-01T10:20:26;98653.09;;;2.15;77.48
34674;BME280;20879;55.668;37.858;2023-02-01T10:23:06;98661.63;;;2.29;76.98
34674;BME280;20879;55.668;37.858;2023-02-01T10:26:01;98656.53;;;2.24;76.65
34674;BME280;20879;55.668;37.858;2023-02-01T10:28:36;98655.66;;;2.21;76.54
34674;BME280;20879;55.668;37.858;2023-02-01T10:31:12;98657.38;;;2.25;76.79
34674;BME280;20879;55.668;37.858;2023-02-01T10:33:45;98658.25;;;2.33;76.50
34674;BME280;20879;55.668;37.858;2023-02-01T10:36:17;98638.66;;;2.26;75.99
34674;BME280;20879;55.668;37.858;2023-02-01T10:38:51;98658.22;;;2.24;75.79
34674;BME280;20879;55.668;37.858;2023-02-01T10:41:21;98648.00;;;2.21;76.07
34674;BME280;20879;55.668;37.858;2023-02-01T10:43:54;98658.25;;;2.33;76.37
34674;BME280;20879;55.668;37.858;2023-02-01T10:46:29;98656.53;;;2.34;75.87
34674;BME280;20879;55.668;37.858;2023-02-01T10:49:02;98642.88;;;2.18;75.75
34674;BME280;20879;55.668;37.858;2023-02-01T10:51:39;98655.66;;;2.10;75.83
34674;BME280;20879;55.668;37.858;2023-02-01T10:54:16;98658.19;;;2.08;76.12
34674;BME280;20879;55.668;37.858;2023-02-01T10:56:47;98658.19;;;2.08;76.50
34674;BME280;20879;55.668;37.858;2023-02-01T10:59:19;98656.53;;;2.31;76.40
34674;BME280;20879;55.668;37.858;2023-02-01T11:01:49;98648.00;;;2.21;76.45
34674;BME280;20879;55.668;37.858;2023-02-01T11:04:26;98656.53;;;2.17;76.05
34674;BME280;20879;55.668;37.858;2023-02-01T11:07:05;98664.16;;;2.12;76.50
34674;BME280;20879;55.668;37.858;2023-02-01T11:09:49;98666.72;;;2.07;76.67
34674;BME280;20879;55.668;37.858;2023-02-01T11:12:27;98652.19;;;1.89;76.39
34674;BME280;20879;55.668;37.858;2023-02-01T11:14:59;98646.22;;;1.81;76.58
34674;BME280;20879;55.668;37.858;2023-02-01T11:17:34;98661.53;;;1.81;77.18
34674;BME280;20879;55.668;37.858;2023-02-01T11:20:14;98630.88;;;1.69;77.02
34674;BME280;20879;55.668;37.858;2023-02-01T11:22:48;98658.13;;;1.78;77.14
34674;BME280;20879;55.668;37.858;2023-02-01T11:25:29;98648.75;;;1.75;77.31
34674;BME280;20879;55.668;37.858;2023-02-01T11:28:01;98662.31;;;1.57;77.50
34674;BME280;20879;55.668;37.858;2023-02-01T11:30:33;98641.84;;;1.46;77.71
34674;BME280;20879;55.668;37.858;2023-02-01T11:33:13;98632.50;;;1.42;77.69
34674;BME280;20879;55.668;37.858;2023-02-01T11:35:44;98670.00;;;1.66;77.73
34674;BME280;20879;55.668;37.858;2023-02-01T11:38:27;98664.06;;;1.69;77.45
34674;BME280;20879;55.668;37.858;2023-02-01T11:41:11;98667.44;;;1.66;77.51
34674;BME280;20879;55.668;37.858;2023-02-01T11:43:53;98670.00;;;1.75;77.40
34674;BME280;20879;55.668;37.858;2023-02-01T11:46:28;98651.31;;;1.78;77.34
34674;BME280;20879;55.668;37.858;2023-02-01T11:49:15;98670.97;;;1.98;76.81
34674;BME280;20879;55.668;37.858;2023-02-01T11:52:07;98674.34;;;1.97;76.54
34674;BME280;20879;55.668;37.858;2023-02-01T11:54:54;98665.78;;;1.84;76.02
34674;BME280;20879;55.668;37.858;2023-02-01T11:57:41;98670.91;;;1.87;75.83
34674;BME280;20879;55.668;37.858;2023-02-01T12:00:40;98666.63;;;1.80;76.12
34674;BME280;20879;55.668;37.858;2023-02-01T12:03:45;98679.44;;;1.89;75.63
34674;BME280;20879;55.668;37.858;2023-02-01T12:06:24;98680.28;;;1.82;75.89
34674;BME280;20879;55.668;37.858;2023-02-01T12:09:07;98687.03;;;1.70;75.90
34674;BME280;20879;55.668;37.858;2023-02-01T12:11:51;98690.41;;;1.69;76.29
34674;BME280;20879;55.668;37.858;2023-02-01T12:14:45;98684.47;;;1.69;76.09
34674;BME280;20879;55.668;37.858;2023-02-01T12:17:32;98688.69;;;1.62;76.26
34674;BME280;20879;55.668;37.858;2023-02-01T12:20:22;98662.19;;;1.35;75.95
34674;BME280;20879;55.668;37.858;2023-02-01T12:23:10;98707.34;;;1.55;76.21
34674;BME280;20879;55.668;37.858;2023-02-01T12:26:05;98706.41;;;1.34;76.29
34674;BME280;20879;55.668;37.858;2023-02-01T12:32:11;98701.25;;;1.22;76.68
34674;BME280;20879;55.668;37.858;2023-02-01T12:34:57;98710.47;;;1.04;76.90
34674;BME280;20879;55.668;37.858;2023-02-01T12:40:32;98717.31;;;1.12;77.45
34674;BME280;20879;55.668;37.858;2023-02-01T12:43:14;98703.69;;;1.08;76.98
34674;BME280;20879;55.668;37.858;2023-02-01T12:45:55;98705.47;;;1.20;76.78
34674;BME280;20879;55.668;37.858;2023-02-01T12:53:51;98721.44;;;0.96;75.92
34674;BME280;20879;55.668;37.858;2023-02-01T12:56:23;98715.41;;;0.84;76.97
34674;BME280;20879;55.668;37.858;2023-02-01T12:58:58;98689.72;;;0.58;77.40
34674;BME280;20879;55.668;37.858;2023-02-01T13:01:35;98722.19;;;0.78;78.05
34674;BME280;20879;55.668;37.858;2023-02-01T13:04:10;98729.00;;;0.83;78.26
34674;BME280;20879;55.668;37.858;2023-02-01T13:06:51;98722.22;;;0.84;78.64
34674;BME280;20879;55.668;37.858;2023-02-01T13:09:32;98719.69;;;0.85;78.65
34674;BME280;20879;55.668;37.858;2023-02-01T13:12:06;98712.88;;;0.84;78.26
34674;BME280;20879;55.668;37.858;2023-02-01T13:14:47;98710.34;;;0.89;78.36
34674;BME280;20879;55.668;37.858;2023-02-01T13:17:22;98721.53;;;1.07;78.50
34674;BME280;20879;55.668;37.858;2023-02-01T13:20:00;98719.81;;;1.04;78.11
34674;BME280;20879;55.668;37.858;2023-02-01T13:22:34;98704.38;;;0.85;77.61
34674;BME280;20879;55.668;37.858;2023-02-01T13:25:13;98715.44;;;0.89;78.59
34674;BME280;20879;55.668;37.858;2023-02-01T13:27:44;98716.22;;;0.79;78.33
34674;BME280;20879;55.668;37.858;2023-02-01T13:30:18;98706.00;;;0.74;78.83
34674;BME280;20879;55.668;37.858;2023-02-01T13:33:24;98719.66;;;0.81;78.52
34674;BME280;20879;55.668;37.858;2023-02-01T13:36:36;98722.97;;;0.71;79.15
34674;BME280;20879;55.668;37.858;2023-02-01T13:39:34;98715.16;;;0.55;79.45
34674;BME280;20879;55.668;37.858;2023-02-01T13:42:17;98724.50;;;0.53;79.42
34674;BME280;20879;55.668;37.858;2023-02-01T13:44:50;98722.81;;;0.55;79.53
34674;BME280;20879;55.668;37.858;2023-02-01T13:47:29;98715.97;;;0.51;79.27
34674;BME280;20879;55.668;37.858;2023-02-01T13:50:01;98721.97;;;0.53;79.87
34674;BME280;20879;55.668;37.858;2023-02-01T13:52:38;98727.09;;;0.59;79.41
34674;BME280;20879;55.668;37.858;2023-02-01T13:55:29;98729.66;;;0.59;79.18
34674;BME280;20879;55.668;37.858;2023-02-01T14:00:50;98727.91;;;0.54;79.83
34674;BME280;20879;55.668;37.858;2023-02-01T14:03:43;98715.09;;;0.46;80.46
34674;BME280;20879;55.668;37.858;2023-02-01T14:06:43;98700.56;;;0.36;79.83